sensor_id;sensor_type;location;lat;lon;timestamp;pressure;altitude;pressure_sealevel;temperature;humidity
23229;BME280;11783;50.350;6.576;2023-01-28T00:01:24;97030.81;;;1.07;100.00
23229;BME280;11783;50.350;6.576;2023-01-28T00:03:50;97021.97;;;1.08;100.00
23229;BME280;11783;50.350;6.576;2023-01-28T00:06:16;97029.00;;;1.07;100.00
23229;BME280;11783;50.350;6.576;2023-01-28T00:08:43;97026.88;;;1.03;100.00
23229;BME280;11783;50.350;6.576;2023-01-28T00:11:10;97020.50;;;1.05;100.00
23229;BME280;11783;50.350;6.576;2023-01-28T00:13:37;97018.88;;;1.04;100.00
23229;BME280;11783;50.350;6.576;2023-01-28T00:16:04;97023.13;;;1.05;100.00
23229;BME280;11783;50.350;6.576;2023-01-28T00:18:37;97022.31;;;1.05;100.00
23229;BME280;11783;50.350;6.576;2023-01-28T00:21:05;97014.44;;;1.05;100.00
23229;BME280;11783;50.350;6.576;2023-01-28T00:23:33;97017.22;;;1.03;100.00
23229;BME280;11783;50.350;6.576;2023-01-28T00:26:01;97024.91;;;1.05;100.00
23229;BME280;11783;50.350;6.576;2023-01-28T00:28:26;97027.53;;;1.05;100.00
23229;BME280;11783;50.350;6.576;2023-01-28T00:30:54;97024.59;;;1.08;100.00
23229;BME280;11783;50.350;6.576;2023-01-28T00:33:23;97024.59;;;1.08;100.00
23229;BME280;11783;50.350;6.576;2023-01-28T00:35:58;97018.53;;;1.07;100.00
23229;BME280;11783;50.350;6.576;2023-01-28T00:38:25;97018.19;;;1.10;100.00
23229;BME280;11783;50.350;6.576;2023-01-28T00:40:53;97018.69;;;1.06;100.00
23229;BME280;11783;50.350;6.576;2023-01-28T00:43:21;97014.47;;;0.97;100.00
23229;BME280;11783;50.350;6.576;2023-01-28T00:45:46;97011.69;;;0.98;100.00
23229;BME280;11783;50.350;6.576;2023-01-28T00:48:17;97018.88;;;0.96;100.00
23229;BME280;11783;50.350;6.576;2023-01-28T00:50:43;97008.56;;;0.95;100.00
23229;BME280;11783;50.350;6.576;2023-01-28T00:53:09;97016.44;;;0.95;100.00
23229;BME280;11783;50.350;6.576;2023-01-28T00:55:34;97010.50;;;0.93;100.00
23229;BME280;11783;50.350;6.576;2023-01-28T00:58:00;97003.63;;;0.91;100.00
23229;BME280;11783;50.350;6.576;2023-01-28T01:00:25;97013.00;;;0.94;100.00
23229;BME280;11783;50.350;6.576;2023-01-28T01:02:53;97006.94;;;0.94;100.00
23229;BME280;11783;50.350;6.576;2023-01-28T01:05:18;97011.03;;;0.96;100.00
23229;BME280;11783;50.350;6.576;2023-01-28T01:07:44;97011.19;;;0.95;100.00
23229;BME280;11783;50.350;6.576;2023-01-28T01:10:15;97021.81;;;0.93;100.00
23229;BME280;11783;50.350;6.576;2023-01-28T01:12:41;97011.66;;;0.90;100.00
23229;BME280;11783;50.350;6.576;2023-01-28T01:15:07;97011.66;;;0.82;100.00
23229;BME280;11783;50.350;6.576;2023-01-28T01:17:37;97012.31;;;0.84;100.00
23229;BME280;11783;50.350;6.576;2023-01-28T01:20:05;97012.16;;;0.85;100.00
23229;BME280;11783;50.350;6.576;2023-01-28T01:22:35;97024.75;;;0.82;100.00
23229;BME280;11783;50.350;6.576;2023-01-28T01:25:01;97016.72;;;0.83;100.00
23229;BME280;11783;50.350;6.576;2023-01-28T01:27:26;97015.75;;;0.84;100.00
23229;BME280;11783;50.350;6.576;2023-01-28T01:29:52;97016.25;;;0.88;100.00
23229;BME280;11783;50.350;6.576;2023-01-28T01:32:17;97017.88;;;0.89;100.00
23229;BME280;11783;50.350;6.576;2023-01-28T01:34:43;97014.78;;;0.85;100.00
23229;BME280;11783;50.350;6.576;2023-01-28T01:37:08;97013.94;;;0.85;100.00
23229;BME280;11783;50.350;6.576;2023-01-28T01:39:34;97015.59;;;0.86;100.00
23229;BME280;11783;50.350;6.576;2023-01-28T01:42:00;97009.22;;;0.88;100.00
23229;BME280;11783;50.350;6.576;2023-01-28T01:47:16;97012.31;;;0.92;100.00
23229;BME280;11783;50.350;6.576;2023-01-28T01:49:43;97015.25;;;0.89;100.00
23229;BME280;11783;50.350;6.576;2023-01-28T01:52:14;97014.13;;;0.83;100.00
23229;BME280;11783;50.350;6.576;2023-01-28T01:54:46;97008.41;;;0.80;100.00
23229;BME280;11783;50.350;6.576;2023-01-28T01:57:18;97010.69;;;0.83;100.00
23229;BME280;11783;50.350;6.576;2023-01-28T01:59:46;97010.53;;;0.84;100.00
23229;BME280;11783;50.350;6.576;2023-01-28T02:02:14;97009.53;;;0.85;100.00
23229;BME280;11783;50.350;6.576;2023-01-28T02:04:44;97014.78;;;0.85;100.00
23229;BME280;11783;50.350;6.576;2023-01-28T02:07:13;97011.34;;;0.85;100.00
23229;BME280;11783;50.350;6.576;2023-01-28T02:09:39;97019.19;;;0.85;100.00
23229;BME280;11783;50.350;6.576;2023-01-28T02:12:21;97015.59;;;0.86;100.00
23229;BME280;11783;50.350;6.576;2023-01-28T02:14:54;97010.03;;;0.89;100.00
23229;BME280;11783;50.350;6.576;2023-01-28T02:17:21;97016.72;;;0.91;100.00
23229;BME280;11783;50.350;6.576;2023-01-28T02:19:54;97017.72;;;0.90;100.00
23229;BME280;11783;50.350;6.576;2023-01-28T02:30:53;97031.94;;;0.88;100.00
23229;BME280;11783;50.350;6.576;2023-01-28T02:33:33;97024.09;;;0.88;100.00
23229;BME280;11783;50.350;6.576;2023-01-28T02:36:09;97029.31;;;0.88;100.00
23229;BME280;11783;50.350;6.576;2023-01-28T02:38:45;97032.28;;;0.85;100.00
23229;BME280;11783;50.350;6.576;2023-01-28T02:41:21;97028.66;;;0.86;100.00
23229;BME280;11783;50.350;6.576;2023-01-28T02:43:48;97027.69;;;0.87;100.00
23229;BME280;11783;50.350;6.576;2023-01-28T02:46:35;97028.50;;;0.87;100.00
23229;BME280;11783;50.350;6.576;2023-01-28T02:49:26;97017.88;;;0.89;100.00
23229;BME280;11783;50.350;6.576;2023-01-28T02:52:04;97009.69;;;0.92;100.00
23229;BME280;11783;50.350;6.576;2023-01-28T03:02:41;97021.81;;;0.85;100.00
23229;BME280;11783;50.350;6.576;2023-01-28T03:07:40;97026.72;;;0.80;100.00
23229;BME280;11783;50.350;6.576;2023-01-28T03:10:11;97028.03;;;0.76;100.00
23229;BME280;11783;50.350;6.576;2023-01-28T03:12:39;97025.41;;;0.76;100.00
23229;BME280;11783;50.350;6.576;2023-01-28T03:15:47;97033.09;;;0.77;100.00
23229;BME280;11783;50.350;6.576;2023-01-28T03:18:48;97035.19;;;0.74;100.00
23229;BME280;11783;50.350;6.576;2023-01-28T03:21:37;97039.78;;;0.72;100.00
23229;BME280;11783;50.350;6.576;2023-01-28T03:24:26;97043.03;;;0.74;100.00
23229;BME280;11783;50.350;6.576;2023-01-28T03:27:45;97048.28;;;0.74;100.00
23229;BME280;11783;50.350;6.576;2023-01-28T03:30:37;97053.50;;;0.74;100.00
23229;BME280;11783;50.350;6.576;2023-01-28T03:33:24;97061.53;;;0.72;100.00
23229;BME280;11783;50.350;6.576;2023-01-28T03:36:09;97054.47;;;0.65;100.00
23229;BME280;11783;50.350;6.576;2023-01-28T03:38:53;97058.25;;;0.70;100.00
23229;BME280;11783;50.350;6.576;2023-01-28T03:41:21;97067.56;;;0.65;100.00
23229;BME280;11783;50.350;6.576;2023-01-28T03:43:47;97068.38;;;0.65;100.00
23229;BME280;11783;50.350;6.576;2023-01-28T03:46:13;97067.25;;;0.68;100.00
23229;BME280;11783;50.350;6.576;2023-01-28T03:48:38;97061.69;;;0.63;100.00
23229;BME280;11783;50.350;6.576;2023-01-28T03:51:04;97066.91;;;0.63;100.00
23229;BME280;11783;50.350;6.576;2023-01-28T03:53:29;97069.53;;;0.63;100.00
23229;BME280;11783;50.350;6.576;2023-01-28T03:55:55;97069.19;;;0.57;100.00
23229;BME280;11783;50.350;6.576;2023-01-28T03:58:24;97070.00;;;0.58;100.00
23229;BME280;11783;50.350;6.576;2023-01-28T04:01:09;97072.91;;;0.55;100.00
23229;BME280;11783;50.350;6.576;2023-01-28T04:03:34;97071.28;;;0.54;100.00
23229;BME280;11783;50.350;6.576;2023-01-28T04:06:03;97076.34;;;0.55;100.00
23229;BME280;11783;50.350;6.576;2023-01-28T04:08:29;97078.16;;;0.55;100.00
23229;BME280;11783;50.350;6.576;2023-01-28T04:10:54;97083.91;;;0.58;100.00
23229;BME280;11783;50.350;6.576;2023-01-28T04:13:20;97083.09;;;0.58;100.00
23229;BME280;11783;50.350;6.576;2023-01-28T04:15:46;97083.25;;;0.56;100.00
23229;BME280;11783;50.350;6.576;2023-01-28T04:18:11;97077.34;;;0.54;100.00
23229;BME280;11783;50.350;6.576;2023-01-28T04:20:37;97079.13;;;0.54;100.00
23229;BME280;11783;50.350;6.576;2023-01-28T04:23:03;97079.94;;;0.54;100.00
23229;BME280;11783;50.350;6.576;2023-01-28T04:25:30;97070.31;;;0.55;100.00
23229;BME280;11783;50.350;6.576;2023-01-28T04:27:55;97077.22;;;0.56;100.00
23229;BME280;11783;50.350;6.576;2023-01-28T04:30:21;97084.88;;;0.57;100.00
23229;BME280;11783;50.350;6.576;2023-01-28T04:32:46;97075.41;;;0.56;100.00
23229;BME280;11783;50.350;6.576;2023-01-28T04:35:14;97072.78;;;0.56;100.00
23229;BME280;11783;50.350;6.576;2023-01-28T04:37:40;97081.59;;;0.55;100.00
23229;BME280;11783;50.350;6.576;2023-01-28T04:40:09;97078.03;;;0.56;100.00
23229;BME280;11783;50.350;6.576;2023-01-28T04:42:35;97081.47;;;0.57;100.00
23229;BME280;11783;50.350;6.576;2023-01-28T04:45:01;97076.34;;;0.55;100.00
23229;BME280;11783;50.350;6.576;2023-01-28T04:47:26;97081.47;;;0.57;100.00
23229;BME280;11783;50.350;6.576;2023-01-28T04:49:51;97084.53;;;0.52;100.00
23229;BME280;11783;50.350;6.576;2023-01-28T04:52:17;97083.06;;;0.50;100.00
23229;BME280;11783;50.350;6.576;2023-01-28T04:54:45;97075.84;;;0.44;100.00
23229;BME280;11783;50.350;6.576;2023-01-28T04:57:13;97077.97;;;0.40;100.00
23229;BME280;11783;50.350;6.576;2023-01-28T04:59:40;97076.63;;;0.36;100.00
23229;BME280;11783;50.350;6.576;2023-01-28T05:02:10;97077.31;;;0.38;100.00
23229;BME280;11783;50.350;6.576;2023-01-28T05:04:38;97074.38;;;0.41;100.00
23229;BME280;11783;50.350;6.576;2023-01-28T05:07:06;97087.78;;;0.46;100.00
23229;BME280;11783;50.350;6.576;2023-01-28T05:09:35;97086.16;;;0.45;100.00
23229;BME280;11783;50.350;6.576;2023-01-28T05:12:01;97087.44;;;0.41;100.00
23229;BME280;11783;50.350;6.576;2023-01-28T05:14:26;97084.34;;;0.38;100.00
23229;BME280;11783;50.350;6.576;2023-01-28T05:16:52;97091.19;;;0.39;100.00
23229;BME280;11783;50.350;6.576;2023-01-28T05:19:20;97092.03;;;0.39;100.00
23229;BME280;11783;50.350;6.576;2023-01-28T05:21:45;97091.19;;;0.39;100.00
23229;BME280;11783;50.350;6.576;2023-01-28T05:24:10;97086.97;;;0.38;100.00
23229;BME280;11783;50.350;6.576;2023-01-28T05:26:36;97104.28;;;0.39;100.00
23229;BME280;11783;50.350;6.576;2023-01-28T05:29:02;97093.00;;;0.38;100.00
23229;BME280;11783;50.350;6.576;2023-01-28T05:31:28;97085.59;;;0.34;100.00
23229;BME280;11783;50.350;6.576;2023-01-28T05:33:53;97100.63;;;0.32;100.00
23229;BME280;11783;50.350;6.576;2023-01-28T05:36:21;97099.81;;;0.31;100.00
23229;BME280;11783;50.350;6.576;2023-01-28T05:38:46;97108.63;;;0.30;100.00
23229;BME280;11783;50.350;6.576;2023-01-28T05:41:17;97111.25;;;0.30;100.00
23229;BME280;11783;50.350;6.576;2023-01-28T05:43:42;97100.47;;;0.25;100.00
23229;BME280;11783;50.350;6.576;2023-01-28T05:46:07;97102.75;;;0.28;100.00
23229;BME280;11783;50.350;6.576;2023-01-28T05:48:33;97100.13;;;0.28;100.00
23229;BME280;11783;50.350;6.576;2023-01-28T05:50:58;97102.28;;;0.33;100.00
23229;BME280;11783;50.350;6.576;2023-01-28T05:53:24;97103.09;;;0.33;100.00
23229;BME280;11783;50.350;6.576;2023-01-28T05:55:55;97104.06;;;0.32;100.00
23229;BME280;11783;50.350;6.576;2023-01-28T05:58:21;97117.47;;;0.29;100.00
23229;BME280;11783;50.350;6.576;2023-01-28T06:00:47;97112.41;;;0.27;100.00
23229;BME280;11783;50.350;6.576;2023-01-28T06:03:12;97119.91;;;0.30;100.00
23229;BME280;11783;50.350;6.576;2023-01-28T06:05:37;97115.50;;;0.31;100.00
23229;BME280;11783;50.350;6.576;2023-01-28T06:08:09;97115.50;;;0.31;100.00
23229;BME280;11783;50.350;6.576;2023-01-28T06:10:34;97119.41;;;0.27;100.00
23229;BME280;11783;50.350;6.576;2023-01-28T06:13:02;97121.38;;;0.25;100.00
23229;BME280;11783;50.350;6.576;2023-01-28T06:15:31;97122.94;;;0.18;100.00
23229;BME280;11783;50.350;6.576;2023-01-28T06:17:56;97126.84;;;0.14;100.00
23229;BME280;11783;50.350;6.576;2023-01-28T06:20:24;97133.06;;;0.13;100.00
23229;BME280;11783;50.350;6.576;2023-01-28T06:22:53;97131.28;;;0.13;100.00
23229;BME280;11783;50.350;6.576;2023-01-28T06:25:18;97129.78;;;0.11;100.00
23229;BME280;11783;50.350;6.576;2023-01-28T06:27:43;97135.69;;;0.13;100.00
23229;BME280;11783;50.350;6.576;2023-01-28T06:30:19;97129.78;;;0.11;100.00
23229;BME280;11783;50.350;6.576;2023-01-28T06:32:45;97133.84;;;0.05;100.00
23229;BME280;11783;50.350;6.576;2023-01-28T06:35:13;97131.41;;;0.04;100.00
23229;BME280;11783;50.350;6.576;2023-01-28T06:37:38;97147.44;;;0.09;100.00
23229;BME280;11783;50.350;6.576;2023-01-28T06:40:09;97144.66;;;0.10;100.00
23229;BME280;11783;50.350;6.576;2023-01-28T06:42:34;97152.69;;;0.17;100.00
23229;BME280;11783;50.350;6.576;2023-01-28T06:44:59;97150.22;;;0.15;100.00
23229;BME280;11783;50.350;6.576;2023-01-28T06:47:27;97158.22;;;0.14;100.00
23229;BME280;11783;50.350;6.576;2023-01-28T06:49:52;97156.56;;;0.05;100.00
23229;BME280;11783;50.350;6.576;2023-01-28T06:52:17;97156.50;;;-0.04;100.00
23229;BME280;11783;50.350;6.576;2023-01-28T06:54:49;97154.03;;;-0.05;100.00
23229;BME280;11783;50.350;6.576;2023-01-28T06:57:14;97156.66;;;-0.05;100.00
23229;BME280;11783;50.350;6.576;2023-01-28T06:59:39;97155.34;;;-0.01;100.00
23229;BME280;11783;50.350;6.576;2023-01-28T07:02:05;97162.38;;;-0.02;100.00
23229;BME280;11783;50.350;6.576;2023-01-28T07:04:31;97165.22;;;0.05;100.00
23229;BME280;11783;50.350;6.576;2023-01-28T07:06:59;97170.09;;;0.00;100.00
23229;BME280;11783;50.350;6.576;2023-01-28T07:09:27;97176.81;;;0.03;100.00
23229;BME280;11783;50.350;6.576;2023-01-28T07:11:55;97173.38;;;0.02;100.00
23229;BME280;11783;50.350;6.576;2023-01-28T07:14:20;97181.06;;;0.04;100.00
23229;BME280;11783;50.350;6.576;2023-01-28T07:16:48;97184.63;;;0.03;100.00
23229;BME280;11783;50.350;6.576;2023-01-28T07:19:14;97173.16;;;-0.05;100.00
23229;BME280;11783;50.350;6.576;2023-01-28T07:21:45;97174.78;;;-0.04;100.00
23229;BME280;11783;50.350;6.576;2023-01-28T07:24:13;97180.13;;;-0.13;100.00
23229;BME280;11783;50.350;6.576;2023-01-28T07:26:38;97169.00;;;-0.15;100.00
23229;BME280;11783;50.350;6.576;2023-01-28T07:29:03;97172.44;;;-0.15;100.00
23229;BME280;11783;50.350;6.576;2023-01-28T07:31:29;97174.75;;;-0.12;100.00
23229;BME280;11783;50.350;6.576;2023-01-28T07:33:56;97172.13;;;-0.12;100.00
23229;BME280;11783;50.350;6.576;2023-01-28T07:36:27;97168.69;;;-0.12;100.00
23229;BME280;11783;50.350;6.576;2023-01-28T07:38:58;97164.78;;;-0.08;100.00
23229;BME280;11783;50.350;6.576;2023-01-28T07:41:23;97170.19;;;-0.10;100.00
23229;BME280;11783;50.350;6.576;2023-01-28T07:43:48;97168.69;;;-0.12;100.00
23229;BME280;11783;50.350;6.576;2023-01-28T07:46:14;97170.13;;;-0.18;100.00
23229;BME280;11783;50.350;6.576;2023-01-28T07:48:40;97174.38;;;-0.17;100.00
23229;BME280;11783;50.350;6.576;2023-01-28T07:51:05;97172.44;;;-0.15;100.00
23229;BME280;11783;50.350;6.576;2023-01-28T07:53:31;97165.72;;;-0.17;100.00
23229;BME280;11783;50.350;6.576;2023-01-28T07:56:02;97165.84;;;-0.19;100.00
23229;BME280;11783;50.350;6.576;2023-01-28T07:58:29;97179.63;;;-0.17;100.00
23229;BME280;11783;50.350;6.576;2023-01-28T08:00:57;97176.03;;;-0.16;100.00
23229;BME280;11783;50.350;6.576;2023-01-28T08:03:23;97176.53;;;-0.12;100.00
23229;BME280;11783;50.350;6.576;2023-01-28T08:05:54;97173.25;;;-0.14;100.00
23229;BME280;11783;50.350;6.576;2023-01-28T08:08:20;97188.69;;;-0.21;100.00
23229;BME280;11783;50.350;6.576;2023-01-28T08:10:46;97194.25;;;-0.24;100.00
23229;BME280;11783;50.350;6.576;2023-01-28T08:13:16;97200.94;;;-0.21;100.00
23229;BME280;11783;50.350;6.576;2023-01-28T08:15:42;97202.31;;;-0.17;100.00
23229;BME280;11783;50.350;6.576;2023-01-28T08:18:09;97195.13;;;-0.15;100.00
23229;BME280;11783;50.350;6.576;2023-01-28T08:20:34;97200.66;;;-0.18;100.00
23229;BME280;11783;50.350;6.576;2023-01-28T08:25:33;97194.59;;;-0.19;100.00
23229;BME280;11783;50.350;6.576;2023-01-28T08:28:01;97199.53;;;-0.16;100.00
23229;BME280;11783;50.350;6.576;2023-01-28T08:30:30;97196.53;;;-0.21;100.00
23229;BME280;11783;50.350;6.576;2023-01-28T08:32:56;97198.34;;;-0.21;100.00
23229;BME280;11783;50.350;6.576;2023-01-28T08:35:26;97201.47;;;-0.18;100.00
23229;BME280;11783;50.350;6.576;2023-01-28T08:37:52;97202.44;;;-0.19;100.00
23229;BME280;11783;50.350;6.576;2023-01-28T08:40:18;97204.38;;;-0.21;100.00
23229;BME280;11783;50.350;6.576;2023-01-28T08:42:48;97205.50;;;-0.23;100.00
23229;BME280;11783;50.350;6.576;2023-01-28T08:45:14;97203.03;;;-0.25;100.00
23229;BME280;11783;50.350;6.576;2023-01-28T08:50:16;97211.56;;;-0.23;100.00
23229;BME280;11783;50.350;6.576;2023-01-28T08:52:42;97212.38;;;-0.22;100.00
23229;BME280;11783;50.350;6.576;2023-01-28T08:55:09;97216.47;;;-0.20;100.00
23229;BME280;11783;50.350;6.576;2023-01-28T08:57:35;97209.91;;;-0.24;100.00
23229;BME280;11783;50.350;6.576;2023-01-28T09:00:04;97202.53;;;-0.28;100.00
23229;BME280;11783;50.350;6.576;2023-01-28T09:02:32;97209.91;;;-0.24;100.00
23229;BME280;11783;50.350;6.576;2023-01-28T09:04:57;97212.22;;;-0.21;100.00
23229;BME280;11783;50.350;6.576;2023-01-28T09:07:26;97217.44;;;-0.21;100.00
23229;BME280;11783;50.350;6.576;2023-01-28T09:09:51;97222.66;;;-0.21;100.00
23229;BME280;11783;50.350;6.576;2023-01-28T09:12:17;97214.81;;;-0.21;100.00
23229;BME280;11783;50.350;6.576;2023-01-28T09:14:42;97217.97;;;-0.17;100.00
23229;BME280;11783;50.350;6.576;2023-01-28T09:17:12;97226.34;;;-0.14;100.00
23229;BME280;11783;50.350;6.576;2023-01-28T09:19:40;97223.31;;;-0.19;100.00
23229;BME280;11783;50.350;6.576;2023-01-28T09:22:08;97230.22;;;-0.18;100.00
23229;BME280;11783;50.350;6.576;2023-01-28T09:24:36;97233.19;;;-0.13;100.00
23229;BME280;11783;50.350;6.576;2023-01-28T09:27:10;97235.16;;;-0.15;100.00
23229;BME280;11783;50.350;6.576;2023-01-28T09:29:39;97236.63;;;-0.12;100.00
23229;BME280;11783;50.350;6.576;2023-01-28T09:32:05;97235.81;;;-0.13;100.00
23229;BME280;11783;50.350;6.576;2023-01-28T09:34:34;97230.44;;;-0.11;100.00
23229;BME280;11783;50.350;6.576;2023-01-28T09:37:01;97240.56;;;-0.08;100.00
23229;BME280;11783;50.350;6.576;2023-01-28T09:39:27;97243.69;;;-0.05;100.00
23229;BME280;11783;50.350;6.576;2023-01-28T09:47:50;97250.41;;;-0.02;100.00
23229;BME280;11783;50.350;6.576;2023-01-28T09:52:55;97261.09;;;0.05;100.00
23229;BME280;11783;50.350;6.576;2023-01-28T09:55:37;97269.59;;;0.07;100.00
23229;BME280;11783;50.350;6.576;2023-01-28T09:58:11;97272.88;;;0.09;100.00
23229;BME280;11783;50.350;6.576;2023-01-28T10:11:42;97282.38;;;0.10;100.00
23229;BME280;11783;50.350;6.576;2023-01-28T10:16:52;97276.13;;;0.03;100.00
23229;BME280;11783;50.350;6.576;2023-01-28T10:19:26;97278.72;;;0.03;100.00
23229;BME280;11783;50.350;6.576;2023-01-28T10:22:01;97274.31;;;0.03;100.00
23229;BME280;11783;50.350;6.576;2023-01-28T10:24:33;97274.84;;;0.07;100.00
23229;BME280;11783;50.350;6.576;2023-01-28T10:27:01;97263.41;;;0.08;100.00
23229;BME280;11783;50.350;6.576;2023-01-28T10:29:30;97270.06;;;0.02;100.00
23229;BME280;11783;50.350;6.576;2023-01-28T10:32:04;97273.66;;;0.01;100.00
23229;BME280;11783;50.350;6.576;2023-01-28T10:34:33;97280.53;;;0.02;100.00
23229;BME280;11783;50.350;6.576;2023-01-28T10:36:59;97276.78;;;0.05;100.00
23229;BME280;11783;50.350;6.576;2023-01-28T10:39:25;97283.50;;;0.07;100.00
23229;BME280;11783;50.350;6.576;2023-01-28T10:41:51;97286.63;;;0.11;100.00
23229;BME280;11783;50.350;6.576;2023-01-28T10:44:36;97289.91;;;0.13;100.00
23229;BME280;11783;50.350;6.576;2023-01-28T10:47:14;97284.97;;;0.10;100.00
23229;BME280;11783;50.350;6.576;2023-01-28T10:49:44;97283.34;;;0.09;100.00
23229;BME280;11783;50.350;6.576;2023-01-28T10:52:13;97283.94;;;0.03;100.00
23229;BME280;11783;50.350;6.576;2023-01-28T10:54:41;97287.38;;;0.03;100.00
23229;BME280;11783;50.350;6.576;2023-01-28T10:57:11;97278.72;;;0.03;100.00
23229;BME280;11783;50.350;6.576;2023-01-28T10:59:38;97268.94;;;0.05;100.00
23229;BME280;11783;50.350;6.576;2023-01-28T11:02:32;97276.78;;;0.05;100.00
23229;BME280;11783;50.350;6.576;2023-01-28T11:05:15;97271.72;;;0.03;100.00
23229;BME280;11783;50.350;6.576;2023-01-28T11:07:41;97274.47;;;0.02;100.00
23229;BME280;11783;50.350;6.576;2023-01-28T11:12:58;97272.22;;;0.07;100.00
23229;BME280;11783;50.350;6.576;2023-01-28T11:15:25;97271.91;;;0.10;100.00
23229;BME280;11783;50.350;6.576;2023-01-28T11:18:03;97274.06;;;0.14;100.00
23229;BME280;11783;50.350;6.576;2023-01-28T11:20:37;97280.78;;;0.17;100.00
23229;BME280;11783;50.350;6.576;2023-01-28T11:23:05;97275.03;;;0.13;100.00
23229;BME280;11783;50.350;6.576;2023-01-28T11:25:35;97274.22;;;0.13;100.00
23229;BME280;11783;50.350;6.576;2023-01-28T11:28:04;97274.72;;;0.16;100.00
23229;BME280;11783;50.350;6.576;2023-01-28T11:30:33;97267.41;;;0.20;100.00
23229;BME280;11783;50.350;6.576;2023-01-28T11:33:16;97264.28;;;0.16;100.00
23229;BME280;11783;50.350;6.576;2023-01-28T11:35:55;97269.00;;;0.13;100.00
23229;BME280;11783;50.350;6.576;2023-01-28T11:38:23;97266.53;;;0.11;100.00
23229;BME280;11783;50.350;6.576;2023-01-28T11:40:54;97261.75;;;0.07;100.00
23229;BME280;11783;50.350;6.576;2023-01-28T11:43:28;97248.19;;;0.03;100.00
23229;BME280;11783;50.350;6.576;2023-01-28T11:51:35;97255.63;;;-0.02;100.00
23229;BME280;11783;50.350;6.576;2023-01-28T11:59:28;97257.16;;;0.01;100.00
23229;BME280;11783;50.350;6.576;2023-01-28T12:15:46;97245.00;;;0.17;100.00
23229;BME280;11783;50.350;6.576;2023-01-28T12:34:22;97240.38;;;0.11;100.00
23229;BME280;11783;50.350;6.576;2023-01-28T12:37:16;97243.00;;;0.11;100.00
23229;BME280;11783;50.350;6.576;2023-01-28T12:44:53;97247.72;;;0.08;100.00
23229;BME280;11783;50.350;6.576;2023-01-28T12:47:26;97244.13;;;0.09;100.00
23229;BME280;11783;50.350;6.576;2023-01-28T12:50:03;97244.28;;;0.07;100.00
23229;BME280;11783;50.350;6.576;2023-01-28T12:52:39;97245.09;;;0.08;100.00
23229;BME280;11783;50.350;6.576;2023-01-28T12:55:19;97250.50;;;0.06;100.00
23229;BME280;11783;50.350;6.576;2023-01-28T12:57:48;97253.25;;;0.05;100.00
23229;BME280;11783;50.350;6.576;2023-01-28T13:00:27;97245.72;;;0.02;100.00
23229;BME280;11783;50.350;6.576;2023-01-28T13:03:10;97240.78;;;-0.02;100.00
23229;BME280;11783;50.350;6.576;2023-01-28T13:06:00;97244.38;;;-0.03;100.00
23229;BME280;11783;50.350;6.576;2023-01-28T13:08:29;97244.66;;;-0.06;100.00
23229;BME280;11783;50.350;6.576;2023-01-28T13:11:01;97244.16;;;-0.09;100.00
23229;BME280;11783;50.350;6.576;2023-01-28T13:13:37;97237.81;;;-0.07;100.00
23229;BME280;11783;50.350;6.576;2023-01-28T13:16:10;97245.50;;;-0.05;100.00
23229;BME280;11783;50.350;6.576;2023-01-28T13:21:13;97241.59;;;-0.01;100.00
23229;BME280;11783;50.350;6.576;2023-01-28T13:23:47;97245.88;;;0.00;100.00
23229;BME280;11783;50.350;6.576;2023-01-28T13:28:49;97262.75;;;0.06;100.00
23229;BME280;11783;50.350;6.576;2023-01-28T13:31:18;97260.63;;;0.09;100.00
23229;BME280;11783;50.350;6.576;2023-01-28T13:41:39;97257.50;;;0.06;100.00
23229;BME280;11783;50.350;6.576;2023-01-28T13:44:20;97261.69;;;-0.02;100.00
23229;BME280;11783;50.350;6.576;2023-01-28T13:46:45;97251.94;;;0.01;100.00
23229;BME280;11783;50.350;6.576;2023-01-28T13:49:33;97258.19;;;-0.10;100.00
23229;BME280;11783;50.350;6.576;2023-01-28T13:54:39;97245.50;;;-0.23;100.00
23229;BME280;11783;50.350;6.576;2023-01-28T14:17:09;97239.16;;;-0.20;100.00
23229;BME280;11783;50.350;6.576;2023-01-28T14:19:39;97244.09;;;-0.17;100.00
23229;BME280;11783;50.350;6.576;2023-01-28T14:22:09;97235.44;;;-0.18;100.00
23229;BME280;11783;50.350;6.576;2023-01-28T14:24:38;97235.44;;;-0.18;100.00
23229;BME280;11783;50.350;6.576;2023-01-28T14:27:25;97241.63;;;-0.19;100.00
23229;BME280;11783;50.350;6.576;2023-01-28T14:32:56;97219.22;;;-0.21;100.00
23229;BME280;11783;50.350;6.576;2023-01-28T14:35:32;97201.75;;;-0.21;100.00
23229;BME280;11783;50.350;6.576;2023-01-28T14:37:59;97182.22;;;-0.17;100.00
23229;BME280;11783;50.350;6.576;2023-01-28T14:40:38;97179.78;;;-0.18;100.00
23229;BME280;11783;50.350;6.576;2023-01-28T14:43:06;97175.31;;;0.00;100.00
23229;BME280;11783;50.350;6.576;2023-01-28T14:56:39;97204.34;;;0.49;100.00
23229;BME280;11783;50.350;6.576;2023-01-28T14:59:19;97219.69;;;0.44;98.59
23229;BME280;11783;50.350;6.576;2023-01-28T15:01:55;97235.03;;;0.39;99.77
23229;BME280;11783;50.350;6.576;2023-01-28T15:04:33;97219.44;;;0.29;100.00
23229;BME280;11783;50.350;6.576;2023-01-28T15:07:34;97229.19;;;0.19;100.00
23229;BME280;11783;50.350;6.576;2023-01-28T15:10:06;97238.44;;;0.13;100.00
23229;BME280;11783;50.350;6.576;2023-01-28T15:12:36;97240.69;;;0.08;100.00
23229;BME280;11783;50.350;6.576;2023-01-28T15:15:38;97249.97;;;0.03;100.00
23229;BME280;11783;50.350;6.576;2023-01-28T15:18:18;97260.19;;;-0.04;99.65
23229;BME280;11783;50.350;6.576;2023-01-28T15:20:47;97262.09;;;-0.14;98.76
23229;BME280;11783;50.350;6.576;2023-01-28T15:23:16;97262.25;;;-0.16;100.00
23229;BME280;11783;50.350;6.576;2023-01-28T15:25:42;97245.00;;;-0.26;100.00
23229;BME280;11783;50.350;6.576;2023-01-28T15:28:14;97252.31;;;-0.30;100.00
23229;BME280;11783;50.350;6.576;2023-01-28T15:30:45;97250.00;;;-0.33;100.00
23229;BME280;11783;50.350;6.576;2023-01-28T15:33:16;97253.97;;;-0.29;100.00
23229;BME280;11783;50.350;6.576;2023-01-28T15:35:52;97248.69;;;-0.37;100.00
23229;BME280;11783;50.350;6.576;2023-01-28T15:38:18;97258.28;;;-0.38;100.00
23229;BME280;11783;50.350;6.576;2023-01-28T15:40:46;97262.00;;;-0.40;100.00